Time;durP1;ratioP1;P1;durP2;ratioP2;P2;SDS_P1;SDS_P2;PMS_P1;PMS_P2;Temp;Humidity;BMP_temperature;BMP_pressure;BME280_temperature;BME280_humidity;BME280_pressure;Samples;Min_cycle;Max_cycle;Signal;HPM_P1;HPM_P2
2021/11/19 00:02:21;;;;;;;13.82;7.55;;;;;;;6.72;100.00;101335.56;5075719;28;20071;-72
2021/11/19 00:04:49;;;;;;;15.02;8.60;;;;;;;6.66;100.00;101336.63;5075271;28;20371;-74
2021/11/19 00:07:17;;;;;;;14.75;8.43;;;;;;;6.69;100.00;101325.94;5075653;28;20045;-74
2021/11/19 00:09:47;;;;;;;14.48;8.10;;;;;;;6.70;100.00;101329.44;5075171;28;20093;-74
2021/11/19 00:12:16;;;;;;;14.65;6.93;;;;;;;6.81;100.00;101330.03;5075237;28;20489;-75
2021/11/19 00:14:44;;;;;;;15.70;8.00;;;;;;;6.65;100.00;101312.78;5074988;28;20041;-74
2021/11/19 00:17:12;;;;;;;15.48;7.68;;;;;;;6.65;100.00;101323.38;5074348;28;20496;-74
2021/11/19 00:19:44;;;;;;;13.20;7.47;;;;;;;6.62;100.00;101315.53;5075086;28;20114;-74
2021/11/19 00:22:15;;;;;;;12.45;6.82;;;;;;;6.59;100.00;101316.50;5075387;28;20048;-74
2021/11/19 00:24:44;;;;;;;12.68;7.28;;;;;;;6.58;100.00;101312.09;5074851;28;20444;-74
2021/11/19 00:27:17;;;;;;;14.02;7.65;;;;;;;6.55;100.00;101314.81;5075493;28;20094;-74
2021/11/19 00:29:47;;;;;;;16.38;7.50;;;;;;;6.55;100.00;101313.03;5075007;28;20052;-74
2021/11/19 00:32:16;;;;;;;16.35;7.63;;;;;;;6.55;100.00;101307.72;5075299;28;20435;-73
2021/11/19 00:34:45;;;;;;;14.57;7.53;;;;;;;6.53;100.00;101309.56;5074879;28;20051;-75
2021/11/19 00:37:13;;;;;;;13.10;7.25;;;;;;;6.55;100.00;101313.03;5074995;28;20444;-74
2021/11/19 00:39:41;;;;;;;13.18;7.47;;;;;;;6.59;100.00;101312.06;5074665;28;20037;-73
2021/11/19 00:42:10;;;;;;;12.50;7.05;;;;;;;6.58;100.00;101309.44;5074854;28;20071;-74
2021/11/19 00:44:40;;;;;;;14.25;7.47;;;;;;;6.59;100.00;101309.41;5074961;28;20047;-73
2021/11/19 00:47:09;;;;;;;15.57;7.90;;;;;;;6.62;100.00;101307.56;5074883;28;20037;-73
2021/11/19 00:49:41;;;;;;;13.73;8.00;;;;;;;6.55;100.00;101307.72;5074788;28;20122;-73
2021/11/19 00:52:13;;;;;;;13.18;7.88;;;;;;;6.53;100.00;101303.38;5074396;28;20056;-74
2021/11/19 00:54:44;;;;;;;14.85;8.35;;;;;;;6.54;100.00;101294.53;5074203;28;20056;-73
2021/11/19 00:57:14;;;;;;;15.85;8.50;;;;;;;6.46;100.00;101300.03;5073691;28;20426;-74
2021/11/19 00:59:45;;;;;;;13.57;7.90;;;;;;;6.52;100.00;101309.59;5074421;28;20474;-74
2021/11/19 01:02:16;;;;;;;14.65;8.35;;;;;;;6.59;100.00;101319.13;5074784;28;20541;-74
2021/11/19 01:04:45;;;;;;;13.77;8.43;;;;;;;6.55;100.00;101307.72;5074628;28;20102;-74
2021/11/19 01:07:16;;;;;;;15.13;8.23;;;;;;;6.52;100.00;101310.47;5074230;28;20455;-74
2021/11/19 01:09:49;;;;;;;14.63;8.05;;;;;;;6.50;100.00;101306.13;5074177;28;20052;-74
2021/11/19 01:12:21;;;;;;;14.30;8.80;;;;;;;6.61;100.00;101306.72;5074160;28;20047;-73
2021/11/19 01:14:54;;;;;;;14.13;8.43;;;;;;;6.51;100.00;101307.88;5074069;28;20067;-73
2021/11/19 01:17:29;;;;;;;18.60;9.10;;;;;;;6.55;100.00;101302.44;5074382;28;20068;-73
2021/11/19 01:20:05;;;;;;;13.38;7.65;;;;;;;6.55;100.00;101290.94;5073901;28;20040;-74
2021/11/19 01:22:36;;;;;;;15.80;8.43;;;;;;;6.57;100.00;101295.31;5074143;28;20060;-75
2021/11/19 01:25:11;;;;;;;16.42;8.77;;;;;;;6.57;100.00;101297.09;5073632;28;20565;-74
2021/11/19 01:27:40;;;;;;;13.52;6.35;;;;;;;6.61;100.00;101290.81;5073668;28;20041;-74
2021/11/19 01:30:19;;;;;;;17.75;8.40;;;;;;;6.58;100.00;101285.59;5074116;28;20040;-74
2021/11/19 01:32:48;;;;;;;17.15;9.07;;;;;;;6.52;100.00;101291.91;5073358;28;20071;-74
2021/11/19 01:35:17;;;;;;;21.77;8.75;;;;;;;6.53;100.00;101287.47;5073921;28;20045;-74
2021/11/19 01:37:45;;;;;;;16.55;9.02;;;;;;;6.59;100.00;101288.19;5073544;28;20051;-74
2021/11/19 01:40:17;;;;;;;13.73;8.73;;;;;;;6.54;100.00;101289.22;5073530;28;20044;-75
2021/11/19 01:42:49;;;;;;;14.00;7.78;;;;;;;6.61;100.00;101285.50;5073584;28;20055;-76
2021/11/19 01:45:21;;;;;;;17.70;9.02;;;;;;;6.57;100.00;101274.13;5073899;28;20457;-75
2021/11/19 01:47:53;;;;;;;15.77;8.57;;;;;;;6.59;100.00;101284.69;5073303;28;20098;-76
2021/11/19 01:50:25;;;;;;;17.05;9.68;;;;;;;6.62;100.00;101275.75;5073508;28;20072;-73
2021/11/19 01:52:59;;;;;;;17.08;8.90;;;;;;;6.67;100.00;101276.53;5073076;28;20048;-73
2021/11/19 01:55:30;;;;;;;14.73;7.95;;;;;;;6.68;100.00;101268.50;5073736;28;20056;-72
2021/11/19 01:58:04;;;;;;;16.20;8.55;;;;;;;6.64;100.00;101253.59;5073234;28;20068;-73
2021/11/19 02:00:39;;;;;;;14.75;8.23;;;;;;;6.67;100.00;101256.19;5073342;28;20041;-72
2021/11/19 02:03:10;;;;;;;17.60;8.13;;;;;;;6.79;100.00;101258.47;5073196;28;20040;-73
2021/11/19 02:05:42;;;;;;;13.80;8.30;;;;;;;6.81;100.00;101250.47;5073404;28;20110;-72
2021/11/19 02:08:13;;;;;;;14.68;7.82;;;;;;;6.78;100.00;101246.13;5072925;28;20555;-73
2021/11/19 02:11:03;;;;;;;16.23;8.40;;;;;;;6.77;100.00;101240.88;5073495;28;20048;-73
2021/11/19 02:13:38;;;;;;;17.58;7.93;;;;;;;6.81;100.00;101235.41;5073086;28;20378;-73
2021/11/19 02:16:10;;;;;;;14.15;7.90;;;;;;;6.84;100.00;101230.03;5073109;28;20060;-73
2021/11/19 02:18:45;;;;;;;16.10;8.50;;;;;;;6.86;100.00;101233.53;5073932;28;20059;-71
2021/11/19 02:21:18;;;;;;;15.25;7.72;;;;;;;6.81;100.00;101222.16;5073795;28;20047;-72
2021/11/19 02:23:50;;;;;;;14.02;7.40;;;;;;;6.89;100.00;101219.28;5073556;28;20064;-72
2021/11/19 02:26:21;;;;;;;16.63;8.30;;;;;;;6.86;100.00;101207.00;5073062;28;20047;-73
2021/11/19 02:28:52;;;;;;;14.55;7.85;;;;;;;6.90;100.00;101207.75;5072577;28;20045;-73
2021/11/19 02:31:25;;;;;;;16.40;9.10;;;;;;;6.96;100.00;101199.63;5073433;28;20049;-71
2021/11/19 02:33:56;;;;;;;18.20;8.65;;;;;;;6.91;100.00;101198.03;5072894;28;20123;-72
2021/11/19 02:36:29;;;;;;;16.52;8.32;;;;;;;6.91;100.00;101195.38;5073146;28;20395;-72
2021/11/19 02:39:02;;;;;;;16.45;8.55;;;;;;;6.84;100.00;101199.97;5071895;28;20037;-74
2021/11/19 02:41:36;;;;;;;18.48;9.02;;;;;;;6.72;100.00;101185.31;5073351;28;20045;-74
2021/11/19 02:44:08;;;;;;;18.13;9.40;;;;;;;6.64;100.00;101189.09;5072783;28;20142;-74
2021/11/19 02:46:41;;;;;;;16.52;9.10;;;;;;;6.61;100.00;101190.06;5071433;28;20335;-73
2021/11/19 02:49:10;;;;;;;13.80;8.63;;;;;;;6.67;100.00;101197.84;5072305;28;20040;-72
2021/11/19 02:51:40;;;;;;;16.45;9.25;;;;;;;6.63;100.00;101198.84;5072495;28;20047;-73
2021/11/19 02:54:11;;;;;;;16.50;8.95;;;;;;;6.71;100.00;101199.47;5072347;28;20486;-74
2021/11/19 02:56:41;;;;;;;17.35;9.30;;;;;;;6.59;100.00;101184.81;5072681;28;20047;-73
2021/11/19 02:59:10;;;;;;;16.35;9.23;;;;;;;6.60;100.00;101204.22;5072201;28;20551;-72
2021/11/19 03:01:44;;;;;;;16.25;9.02;;;;;;;6.44;100.00;101208.22;5072815;28;20068;-72
2021/11/19 03:04:15;;;;;;;16.27;9.60;;;;;;;6.48;100.00;101204.59;5072682;28;20403;-72
2021/11/19 03:06:49;;;;;;;17.95;9.20;;;;;;;6.48;100.00;101204.59;5072659;28;20460;-71
2021/11/19 03:09:23;;;;;;;18.00;10.05;;;;;;;6.43;100.00;101217.94;5072966;28;20056;-71
2021/11/19 03:11:51;;;;;;;18.17;9.98;;;;;;;6.54;100.00;101220.28;5072285;28;20505;-76
2021/11/19 03:14:22;;;;;;;18.65;10.23;;;;;;;6.50;100.00;101224.81;5072467;28;20489;-71
2021/11/19 03:16:53;;;;;;;17.60;10.02;;;;;;;6.54;100.00;101225.59;5072366;28;20067;-73
2021/11/19 03:19:22;;;;;;;19.65;10.15;;;;;;;6.57;100.00;101225.53;5072777;28;20045;-72
2021/11/19 03:21:51;;;;;;;17.75;9.93;;;;;;;6.70;100.00;101216.31;5072545;28;20045;-72
2021/11/19 03:24:20;;;;;;;19.25;9.80;;;;;;;6.77;100.00;101220.53;5072490;28;20052;-71
2021/11/19 03:26:50;;;;;;;17.33;9.45;;;;;;;6.77;100.00;101212.56;5072844;28;20041;-71
2021/11/19 03:29:19;;;;;;;17.90;9.70;;;;;;;6.78;100.00;101209.00;5072115;28;20045;-72
2021/11/19 03:31:48;;;;;;;17.42;10.07;;;;;;;6.80;100.00;101215.13;5072204;28;20064;-72
2021/11/19 03:34:19;;;;;;;19.45;10.13;;;;;;;6.91;100.00;101213.94;5072139;28;20053;-72
2021/11/19 03:36:49;;;;;;;16.85;9.77;;;;;;;6.88;100.00;101225.50;5072524;28;20051;-71
2021/11/19 03:39:20;;;;;;;18.98;10.23;;;;;;;6.87;100.00;101216.69;5072299;28;20045;-73
2021/11/19 03:41:50;;;;;;;17.83;9.82;;;;;;;6.87;100.00;101197.25;5072509;28;20041;-73
2021/11/19 03:44:20;;;;;;;18.55;10.93;;;;;;;6.81;100.00;101193.00;5071887;28;20051;-72
2021/11/19 03:46:53;;;;;;;18.08;10.48;;;;;;;6.81;100.00;101182.38;5072564;28;20045;-75
2021/11/19 03:49:24;;;;;;;19.67;8.98;;;;;;;6.78;100.00;101177.19;5072489;28;20040;-75
2021/11/19 03:51:55;;;;;;;17.92;10.00;;;;;;;6.81;100.00;101174.44;5075621;28;20052;-75
2021/11/19 03:54:27;;;;;;;15.48;9.30;;;;;;;6.76;100.00;101163.09;5075784;28;20057;-75
2021/11/19 03:56:58;;;;;;;20.48;10.95;;;;;;;6.78;100.00;101153.31;5075394;28;20044;-71
2021/11/19 03:59:26;;;;;;;18.90;10.45;;;;;;;6.73;100.00;101154.34;5075894;28;20040;-71
2021/11/19 04:01:56;;;;;;;18.58;10.82;;;;;;;6.58;100.00;101158.34;5075514;28;20040;-75
2021/11/19 04:04:30;;;;;;;18.35;10.82;;;;;;;6.43;100.00;101153.47;5074528;28;20127;-70
2021/11/19 04:07:00;;;;;;;21.42;11.80;;;;;;;6.39;100.00;101160.66;5075167;28;20044;-70
2021/11/19 04:09:29;;;;;;;21.70;11.63;;;;;;;6.34;100.00;101157.25;5075717;28;20066;-71
2021/11/19 04:11:59;;;;;;;21.15;11.27;;;;;;;6.35;100.00;101159.00;5073989;28;20459;-71
2021/11/19 04:14:30;;;;;;;20.13;11.15;;;;;;;6.35;100.00;101177.53;5075722;28;20051;-70
2021/11/19 04:17:00;;;;;;;19.58;10.80;;;;;;;6.36;100.00;101167.81;5075143;28;20041;-70
2021/11/19 04:19:31;;;;;;;23.67;11.95;;;;;;;6.34;100.00;101169.63;5075153;28;20063;-70
2021/11/19 04:22:04;;;;;;;22.55;11.65;;;;;;;6.51;100.00;101162.09;5075096;28;20059;-71
2021/11/19 04:24:35;;;;;;;22.52;11.65;;;;;;;6.34;100.00;101172.28;5075077;28;20044;-71
2021/11/19 04:27:05;;;;;;;24.70;11.88;;;;;;;6.24;100.00;101169.03;5074989;28;20041;-72
2021/11/19 04:29:33;;;;;;;20.60;12.07;;;;;;;6.27;100.00;101175.13;5074892;28;20041;-73
2021/11/19 04:32:02;;;;;;;19.23;11.27;;;;;;;6.30;100.00;101169.72;5074518;28;20036;-72
2021/11/19 04:34:32;;;;;;;20.02;12.05;;;;;;;6.22;100.00;101171.72;5074823;28;20056;-72
2021/11/19 04:37:00;;;;;;;20.98;11.52;;;;;;;6.25;100.00;101171.63;5074741;28;20502;-76
2021/11/19 04:39:31;;;;;;;19.55;11.20;;;;;;;6.29;100.00;101162.69;5075208;28;20052;-75
2021/11/19 04:42:00;;;;;;;19.27;11.13;;;;;;;6.31;100.00;101163.53;5073413;28;20056;-76
2021/11/19 04:44:29;;;;;;;18.35;10.48;;;;;;;6.35;100.00;101160.78;5074979;28;20079;-75
2021/11/19 04:46:57;;;;;;;22.38;10.80;;;;;;;6.32;100.00;101162.59;5074819;28;20274;-78
2021/11/19 04:49:25;;;;;;;19.90;11.27;;;;;;;6.25;100.00;101162.81;5074917;28;20501;-75
2021/11/19 04:51:55;;;;;;;19.52;10.57;;;;;;;6.25;100.00;101171.63;5074694;28;20040;-75
2021/11/19 04:54:25;;;;;;;18.40;10.82;;;;;;;6.21;100.00;101170.00;5074471;28;20060;-75
2021/11/19 04:56:54;;;;;;;20.48;11.07;;;;;;;6.32;100.00;101153.78;5074789;28;20399;-75
2021/11/19 04:59:23;;;;;;;17.65;10.15;;;;;;;6.41;100.00;101150.00;5074411;28;20040;-75
2021/11/19 05:01:55;;;;;;;23.08;11.32;;;;;;;6.41;100.00;101144.72;5073575;28;20041;-75
2021/11/19 05:04:25;;;;;;;20.35;9.90;;;;;;;6.52;100.00;101142.63;5074796;28;20440;-76
2021/11/19 05:06:55;;;;;;;21.33;9.93;;;;;;;6.71;100.00;101130.53;5074468;28;20086;-72
2021/11/19 05:09:23;;;;;;;21.10;10.25;;;;;;;6.79;100.00;101144.44;5074198;28;20126;-72
2021/11/19 05:11:54;;;;;;;18.20;9.05;;;;;;;6.79;100.00;101141.78;5074135;28;20052;-72
2021/11/19 05:14:23;;;;;;;17.50;9.45;;;;;;;6.80;100.00;101137.34;5074024;28;20124;-73
2021/11/19 05:16:53;;;;;;;18.30;10.05;;;;;;;6.80;100.00;101132.91;5073952;28;20040;-72
2021/11/19 05:19:21;;;;;;;19.08;9.93;;;;;;;6.78;100.00;101140.06;5073964;28;20050;-72
2021/11/19 05:21:50;;;;;;;12.20;6.68;;;;;;;6.85;100.00;101133.66;5074212;28;20053;-72
2021/11/19 05:24:20;;;;;;;17.77;9.23;;;;;;;6.83;100.00;101137.25;5073962;28;20058;-73
2021/11/19 05:26:49;;;;;;;18.05;9.50;;;;;;;6.83;100.00;101148.72;5074107;28;20044;-75
2021/11/19 05:29:19;;;;;;;18.15;9.45;;;;;;;6.77;100.00;101148.06;5073906;28;20044;-75
2021/11/19 05:31:49;;;;;;;14.60;8.13;;;;;;;6.92;100.00;101144.06;5073928;28;20060;-73
2021/11/19 05:34:17;;;;;;;13.93;7.70;;;;;;;6.95;100.00;101136.00;5073396;28;20072;-75
2021/11/19 05:36:47;;;;;;;15.75;7.70;;;;;;;6.91;100.00;101131.72;5073880;28;20071;-73
2021/11/19 05:39:15;;;;;;;15.18;8.63;;;;;;;6.85;100.00;101124.81;5073273;28;20040;-73
2021/11/19 05:41:46;;;;;;;15.20;7.63;;;;;;;6.91;100.00;101129.94;5073463;28;20131;-74
2021/11/19 05:44:15;;;;;;;14.07;7.55;;;;;;;6.89;100.00;101131.78;5073596;28;20101;-75
2021/11/19 05:46:44;;;;;;;14.52;7.63;;;;;;;6.88;100.00;101120.28;5073367;28;20055;-72
2021/11/19 05:49:18;;;;;;;14.25;7.70;;;;;;;6.88;100.00;101115.00;5073286;28;20406;-74
2021/11/19 05:51:49;;;;;;;14.55;8.20;;;;;;;6.88;100.00;101111.47;5073451;28;20059;-72
2021/11/19 05:54:23;;;;;;;15.10;8.13;;;;;;;6.92;100.00;101112.22;5073119;28;20086;-73
2021/11/19 05:56:54;;;;;;;16.30;8.47;;;;;;;6.94;100.00;101128.97;5073755;28;20448;-71
2021/11/19 05:59:23;;;;;;;14.32;8.05;;;;;;;6.97;100.00;101135.06;5073331;28;20277;-75
2021/11/19 06:01:51;;;;;;;15.90;8.85;;;;;;;6.95;100.00;101130.69;5073440;28;20041;-76
2021/11/19 06:04:20;;;;;;;14.82;8.93;;;;;;;7.02;100.00;101118.97;5072747;28;20040;-77
2021/11/19 06:06:48;;;;;;;15.43;8.00;;;;;;;7.10;100.00;101114.31;5073513;28;20558;-73
2021/11/19 06:09:26;;;;;;;15.30;7.95;;;;;;;7.06;100.00;101120.63;5072789;28;20477;-75
2021/11/19 06:11:59;;;;;;;15.98;9.23;;;;;;;6.97;100.00;101115.63;5073480;28;20045;-73
2021/11/19 06:14:34;;;;;;;14.25;8.57;;;;;;;7.04;100.00;101114.50;5072819;28;20040;-74
2021/11/19 06:17:06;;;;;;;15.38;9.07;;;;;;;7.01;100.00;101119.91;5073042;28;20036;-73
2021/11/19 06:19:36;;;;;;;16.98;8.70;;;;;;;7.06;100.00;101118.84;5073331;28;20098;-72
2021/11/19 06:22:08;;;;;;;15.90;8.15;;;;;;;7.05;100.00;101105.66;5072921;28;20123;-76
2021/11/19 06:24:40;;;;;;;14.93;8.20;;;;;;;7.07;100.00;101109.97;5073444;28;20397;-71
2021/11/19 06:27:12;;;;;;;12.18;7.70;;;;;;;7.04;100.00;101112.69;5072970;28;20056;-72
2021/11/19 06:29:40;;;;;;;15.32;8.32;;;;;;;7.06;100.00;101120.63;5073018;28;20064;-72
2021/11/19 06:32:09;;;;;;;14.52;8.68;;;;;;;7.05;100.00;101105.66;5072601;28;20048;-72
2021/11/19 06:34:37;;;;;;;15.52;8.73;;;;;;;7.03;100.00;101100.34;5072906;28;20482;-73
2021/11/19 06:37:05;;;;;;;15.95;8.82;;;;;;;7.09;100.00;101101.97;5072924;28;20044;-76
2021/11/19 06:39:34;;;;;;;13.55;7.75;;;;;;;7.09;100.00;101094.00;5072557;28;20074;-73
2021/11/19 06:42:03;;;;;;;15.20;8.27;;;;;;;7.21;100.00;101101.56;5072726;28;20402;-72
2021/11/19 06:44:32;;;;;;;15.38;8.18;;;;;;;7.21;100.00;101116.59;5072406;28;20044;-72
2021/11/19 06:47:02;;;;;;;16.77;8.30;;;;;;;7.26;100.00;101093.47;5072817;28;20044;-72
2021/11/19 06:49:30;;;;;;;14.13;7.60;;;;;;;7.28;100.00;101097.78;5072330;28;20041;-76
2021/11/19 06:51:58;;;;;;;15.50;8.52;;;;;;;7.34;100.00;101102.91;5072470;28;20489;-70
2021/11/19 06:54:32;;;;;;;16.10;9.27;;;;;;;7.28;100.00;101103.09;5072042;28;20057;-70
2021/11/19 06:57:01;;;;;;;14.23;8.48;;;;;;;7.42;100.00;101106.13;5071760;28;20432;-71
2021/11/19 06:59:30;;;;;;;14.48;8.55;;;;;;;7.36;100.00;101094.88;5067872;28;20045;-75
2021/11/19 07:01:59;;;;;;;15.45;8.65;;;;;;;7.54;100.00;101093.41;5073100;28;20048;-67
2021/11/19 07:04:29;;;;;;;15.00;9.43;;;;;;;7.58;100.00;101102.97;5071071;28;20493;-68
2021/11/19 07:06:57;;;;;;;13.65;8.32;;;;;;;7.58;100.00;101105.63;5071263;28;20398;-71
2021/11/19 07:09:26;;;;;;;14.50;8.60;;;;;;;7.67;100.00;101108.84;5071482;28;20048;-69
2021/11/19 07:11:55;;;;;;;13.88;8.48;;;;;;;7.73;100.00;101113.09;5069908;28;20446;-72
2021/11/19 07:14:24;;;;;;;15.55;9.07;;;;;;;7.81;100.00;101110.13;5071470;28;20048;-68
2021/11/19 07:16:52;;;;;;;12.95;7.65;;;;;;;7.89;100.00;101111.59;5074484;28;20054;-70
2021/11/19 07:19:23;;;;;;;12.93;7.40;;;;;;;7.94;100.00;101104.34;5073729;28;20143;-71
2021/11/19 07:21:53;;;;;;;14.52;7.85;;;;;;;7.98;100.00;101116.59;5072048;28;20547;-70
2021/11/19 07:24:22;;;;;;;15.60;8.38;;;;;;;8.00;100.00;101114.75;5070779;28;20040;-70
2021/11/19 07:26:51;;;;;;;14.55;8.55;;;;;;;8.00;100.00;101101.47;5075733;28;20044;-71
2021/11/19 07:29:19;;;;;;;13.02;7.80;;;;;;;8.13;100.00;101116.97;5074798;28;20504;-72
2021/11/19 07:31:47;;;;;;;15.70;8.27;;;;;;;8.08;100.00;101116.25;5075038;28;20056;-72
2021/11/19 07:34:16;;;;;;;14.07;8.50;;;;;;;8.10;100.00;101111.75;5074788;28;20044;-72
2021/11/19 07:36:46;;;;;;;14.52;8.20;;;;;;;8.12;100.00;101123.22;5075513;28;20056;-71
2021/11/19 07:39:14;;;;;;;13.30;8.13;;;;;;;8.06;100.00;101104.84;5075029;28;20041;-73
2021/11/19 07:41:43;;;;;;;13.38;8.10;;;;;;;8.12;100.00;101105.50;5075105;28;20041;-74
2021/11/19 07:44:11;;;;;;;14.23;8.23;;;;;;;8.16;100.00;101108.88;5073546;28;20072;-69
2021/11/19 07:46:40;;;;;;;13.65;8.15;;;;;;;8.20;100.00;101113.16;5075298;28;20451;-70
2021/11/19 07:49:09;;;;;;;13.23;7.80;;;;;;;8.27;100.00;101106.69;5074882;28;20072;-72
2021/11/19 07:51:40;;;;;;;13.20;7.35;;;;;;;8.23;100.00;101105.94;5074707;28;20044;-69
2021/11/19 07:54:10;;;;;;;13.52;7.40;;;;;;;8.24;100.00;101101.50;5074194;28;20114;-72
2021/11/19 07:56:39;;;;;;;14.38;7.35;;;;;;;8.22;100.00;101106.88;5074829;28;20394;-73
2021/11/19 07:59:10;;;;;;;13.98;8.35;;;;;;;8.27;100.00;101112.00;5074468;28;20051;-72
2021/11/19 08:01:40;;;;;;;13.63;8.50;;;;;;;8.31;100.00;101111.84;5074659;28;20052;-72
2021/11/19 08:04:09;;;;;;;13.55;7.47;;;;;;;8.33;100.00;101102.03;5074505;28;20098;-72
2021/11/19 08:06:38;;;;;;;14.57;8.02;;;;;;;8.36;100.00;101109.03;5074586;28;20117;-72
2021/11/19 08:09:07;;;;;;;16.00;7.97;;;;;;;8.39;100.00;101097.41;5074752;28;20048;-72
2021/11/19 08:11:37;;;;;;;14.15;8.68;;;;;;;8.39;100.00;101100.94;5074342;28;20131;-72
2021/11/19 08:14:07;;;;;;;10.75;6.40;;;;;;;8.48;100.00;101105.91;5074430;28;20054;-73
2021/11/19 08:16:47;;;;;;;14.80;8.55;;;;;;;8.37;100.00;101108.13;5073984;28;20128;-71
2021/11/19 08:19:23;;;;;;;17.23;8.50;;;;;;;8.49;100.00;101118.31;5074109;28;20050;-71
2021/11/19 08:21:53;;;;;;;12.10;7.88;;;;;;;8.41;100.00;101109.75;5074113;28;20044;-69
2021/11/19 08:24:22;;;;;;;13.57;8.02;;;;;;;8.52;100.00;101112.88;5073199;28;20469;-69
2021/11/19 08:26:55;;;;;;;13.93;8.18;;;;;;;8.49;100.00;101118.31;5072747;28;20049;-70
2021/11/19 08:29:26;;;;;;;15.13;8.05;;;;;;;8.55;100.00;101118.06;5054155;28;20512;-71
2021/11/19 08:31:55;;;;;;;13.77;7.95;;;;;;;8.58;100.00;101106.44;5054551;28;20367;-69
2021/11/19 08:34:24;;;;;;;13.63;8.10;;;;;;;8.67;100.00;101110.53;5055004;28;20153;-68
2021/11/19 08:36:53;;;;;;;14.90;7.25;;;;;;;8.68;100.00;101112.25;5073792;28;20117;-68
2021/11/19 08:39:24;;;;;;;13.15;8.05;;;;;;;8.62;100.00;101118.72;5053988;28;20037;-68
2021/11/19 08:41:54;;;;;;;13.05;8.38;;;;;;;8.68;100.00;101123.78;5053965;28;20041;-68
2021/11/19 08:44:24;;;;;;;13.35;8.35;;;;;;;8.78;100.00;101124.28;5053349;28;20045;-69
2021/11/19 08:47:15;;;;;;;17.00;8.60;;;;;;;8.85;100.00;101125.78;5054246;28;20041;-70
2021/11/19 08:49:43;;;;;;;13.77;7.80;;;;;;;8.86;100.00;101140.81;5054179;28;20055;-69
2021/11/19 08:52:14;;;;;;;16.08;8.07;;;;;;;8.74;100.00;101139.50;5053906;28;20041;-70
2021/11/19 08:54:43;;;;;;;12.73;7.45;;;;;;;8.72;100.00;101129.84;5053641;28;20118;-69
2021/11/19 08:57:15;;;;;;;11.45;6.68;;;;;;;8.72;100.00;101109.44;5056117;28;20044;-71
2021/11/19 08:59:46;;;;;;;13.73;7.75;;;;;;;8.80;100.00;101107.34;5074072;28;20537;-70
2021/11/19 09:02:17;;;;;;;13.48;8.63;;;;;;;8.82;100.00;101109.94;5072849;28;20181;-70
2021/11/19 09:05:00;;;;;;;13.35;7.22;;;;;;;8.86;100.00;101104.44;5073355;28;20056;-70
2021/11/19 09:07:30;;;;;;;9.52;5.43;;;;;;;8.87;100.00;101107.97;5073335;28;20094;-70
2021/11/19 09:10:00;;;;;;;9.32;5.35;;;;;;;8.74;100.00;101096.94;5073877;28;20094;-70
2021/11/19 09:12:32;;;;;;;16.50;8.95;;;;;;;8.73;100.00;101107.66;5073471;28;20036;-70
2021/11/19 09:15:01;;;;;;;10.15;5.22;;;;;;;8.84;100.00;101095.66;5073059;28;20090;-70
2021/11/19 09:17:46;;;;;;;13.50;7.32;;;;;;;8.89;100.00;101114.13;5073283;28;20444;-70
2021/11/19 09:20:19;;;;;;;17.75;7.95;;;;;;;8.90;100.00;101102.53;5072349;28;20098;-70
2021/11/19 09:23:04;;;;;;;14.15;8.40;;;;;;;8.99;100.00;101102.16;5073860;28;20091;-69
2021/11/19 09:25:35;;;;;;;12.77;7.25;;;;;;;9.20;100.00;101089.78;5073064;28;20048;-69
2021/11/19 09:28:05;;;;;;;14.63;8.07;;;;;;;9.24;100.00;101094.03;5075754;28;20052;-72
2021/11/19 09:30:37;;;;;;;13.63;8.48;;;;;;;9.09;100.00;101087.56;5072787;28;20040;-71
2021/11/19 09:33:09;;;;;;;15.57;9.63;;;;;;;9.29;100.00;101099.19;5072067;28;20040;-71
2021/11/19 09:35:38;;;;;;;9.38;5.45;;;;;;;9.23;100.00;101088.78;5072638;28;20123;-71
2021/11/19 09:38:08;;;;;;;12.65;7.35;;;;;;;9.25;100.00;101076.28;5073363;28;20496;-72
2021/11/19 09:40:38;;;;;;;18.67;7.25;;;;;;;9.29;100.00;101072.56;5073059;28;20066;-70
2021/11/19 09:43:18;;;;;;;11.88;6.93;;;;;;;9.38;100.00;101073.06;5073025;28;20047;-68
2021/11/19 09:46:11;;;;;;;12.70;6.82;;;;;;;9.45;100.00;101073.63;5072783;28;20037;-71
2021/11/19 09:48:55;;;;;;;13.27;7.72;;;;;;;9.58;100.00;101053.56;5028300;28;20443;-72
2021/11/19 09:52:08;;;;;;;15.25;7.45;;;;;;;9.84;100.00;101064.84;5070943;28;20075;-74
2021/11/19 09:55:21;;;;;;;14.70;7.60;;;;;;;9.89;100.00;101061.06;5071387;28;20075;-71
2021/11/19 09:58:24;;;;;;;16.23;8.35;;;;;;;9.82;100.00;101058.72;5019580;28;20052;-70
2021/11/19 10:01:14;;;;;;;9.77;5.15;;;;;;;9.78;100.00;101065.13;5052993;28;20076;-71
2021/11/19 10:04:07;;;;;;;15.98;9.05;;;;;;;9.78;100.00;101066.00;5071882;28;20040;-68
2021/11/19 10:06:43;;;;;;;13.68;7.57;;;;;;;9.74;100.00;101049.25;5072191;28;20098;-69
2021/11/19 10:09:20;;;;;;;17.35;8.25;;;;;;;9.77;100.00;101047.44;5072345;28;20060;-71
2021/11/19 10:11:53;;;;;;;15.55;8.52;;;;;;;9.89;100.00;101046.88;5072226;28;20080;-70
2021/11/19 10:14:40;;;;;;;15.27;8.50;;;;;;;9.82;100.00;101045.41;5072393;28;20098;-70
2021/11/19 10:17:23;;;;;;;16.20;9.43;;;;;;;9.82;100.00;101037.41;5072285;28;20068;-70
2021/11/19 10:19:56;;;;;;;17.30;9.40;;;;;;;9.82;100.00;101034.75;5071046;28;20044;-72
2021/11/19 10:22:29;;;;;;;15.68;8.82;;;;;;;9.81;100.00;101022.34;5072166;28;20132;-76
2021/11/19 10:25:09;;;;;;;11.10;6.63;;;;;;;9.85;100.00;101013.31;5072068;28;20033;-70
2021/11/19 10:27:40;;;;;;;14.55;8.45;;;;;;;9.87;100.00;101016.78;5072172;28;20363;-70
2021/11/19 10:30:19;;;;;;;13.18;7.60;;;;;;;9.91;100.00;101019.22;5072638;28;20047;-69
2021/11/19 10:32:48;;;;;;;17.33;9.85;;;;;;;10.11;100.00;101022.78;5072256;28;20044;-69
2021/11/19 10:35:36;;;;;;;15.18;8.73;;;;;;;9.82;100.00;101002.78;5072215;28;20047;-69
2021/11/19 10:38:34;;;;;;;11.35;5.53;;;;;;;9.78;100.00;100995.88;5072467;28;20442;-70
2021/11/19 10:41:25;;;;;;;13.15;6.95;;;;;;;9.71;100.00;100993.47;5072788;28;20041;-70
2021/11/19 10:44:12;;;;;;;15.13;9.00;;;;;;;9.85;100.00;101000.00;5072126;28;20072;-70
2021/11/19 10:47:18;;;;;;;12.25;6.75;;;;;;;9.78;100.00;101002.06;5072086;28;20033;-69
2021/11/19 10:50:23;;;;;;;15.48;9.05;;;;;;;9.90;100.00;100992.63;5071986;28;20478;-71
2021/11/19 10:53:18;;;;;;;13.55;8.32;;;;;;;9.96;100.00;101000.38;5071935;28;20500;-71
2021/11/19 10:56:30;;;;;;;14.73;8.83;;;;;;;10.22;100.00;100994.69;5071831;28;20139;-71
2021/11/19 10:59:00;;;;;;;12.48;6.40;;;;;;;10.14;100.00;100996.84;5071582;28;20045;-74
2021/11/19 11:01:47;;;;;;;8.90;5.30;;;;;;;10.12;100.00;100996.03;5075752;28;20127;-70
2021/11/19 11:04:27;;;;;;;15.23;7.97;;;;;;;10.13;100.00;100989.75;5075608;28;20076;-70
2021/11/19 11:07:12;;;;;;;14.95;8.70;;;;;;;10.28;100.00;101002.41;5076212;28;20374;-72
2021/11/19 11:09:45;;;;;;;15.30;8.70;;;;;;;10.28;100.00;100981.09;5075349;28;20052;-70
2021/11/19 11:12:21;;;;;;;;;;;;;;;10.24;100.00;100984.00;5076395;28;20036;-72
2021/11/19 11:15:07;;;;;;;13.05;6.47;;;;;;;10.16;100.00;100981.66;5075176;28;19943;-69
2021/11/19 11:17:37;;;;;;;16.90;7.60;;;;;;;10.18;100.00;100979.75;5075454;28;20505;-69
2021/11/19 11:20:23;;;;;;;12.10;6.32;;;;;;;10.26;100.00;100976.78;5078598;28;20051;-68
2021/11/19 11:22:53;;;;;;;14.52;7.50;;;;;;;10.39;100.00;100971.72;5074869;28;20462;-71
2021/11/19 11:25:27;;;;;;;33.67;6.05;;;;;;;10.24;100.00;100962.66;5074152;28;20492;-72
2021/11/19 11:28:12;;;;;;;15.13;7.55;;;;;;;10.22;100.00;100976.03;5074969;28;20098;-68
2021/11/19 11:30:52;;;;;;;14.57;7.63;;;;;;;10.25;100.00;100978.56;5074949;28;20040;-70
2021/11/19 11:33:26;;;;;;;11.85;7.07;;;;;;;10.30;100.00;100968.53;5075010;28;20052;-71
2021/11/19 11:36:08;;;;;;;14.57;7.45;;;;;;;10.34;100.00;100973.75;5074739;28;20047;-72
2021/11/19 11:38:50;;;;;;;12.35;6.55;;;;;;;10.31;100.00;100980.94;5074765;28;20070;-68
2021/11/19 11:41:27;;;;;;;15.10;7.87;;;;;;;10.32;100.00;100958.66;5075207;28;20040;-67
2021/11/19 11:44:17;;;;;;;9.55;5.47;;;;;;;10.29;100.00;100960.63;5074437;28;20063;-68